Aviation Digital Data Service (ADDS)

Output produced by METARs form (2324 UTC 01 March 2015)
found at http://aviationweather.gov/adds/metars/
 
KINT 012015Z 0120/0218 VRB04KT P6SM -FZRA FEW005 OVC015 
     FM012200 VRB03KT 2SM -DZ BR OVC005 
     FM020300 23004KT 2SM BR OVC002 
     FM021500 33007KT P6SM BKN015 BKN040